createdAt,value
2022-11-25T00:01:28.264Z,5.50
2022-11-25T00:04:14.423Z,5.40
2022-11-25T00:06:59.638Z,6.30
2022-11-25T00:09:45.130Z,5.40
2022-11-25T00:12:30.673Z,5.60
2022-11-25T00:15:16.258Z,5.70
2022-11-25T00:18:02.018Z,5.50
2022-11-25T00:20:47.395Z,5.40
2022-11-25T00:23:33.527Z,5.50
2022-11-25T00:26:20.256Z,5.60
2022-11-25T00:29:07.758Z,5.40
2022-11-25T00:31:53.032Z,5.40
2022-11-25T00:34:38.616Z,5.40
2022-11-25T00:37:23.985Z,5.50
2022-11-25T00:40:10.201Z,5.60
2022-11-25T00:43:14.098Z,5.90
2022-11-25T00:45:59.417Z,5.70
2022-11-25T00:48:45.014Z,5.70
2022-11-25T00:51:30.604Z,5.60
2022-11-25T00:54:16.092Z,5.70
2022-11-25T00:57:01.489Z,5.80
2022-11-25T00:59:47.503Z,5.90
2022-11-25T01:02:33.030Z,6.00
2022-11-25T01:05:18.522Z,5.80
2022-11-25T01:08:04.012Z,5.70
2022-11-25T01:10:49.276Z,5.60
2022-11-25T01:13:35.175Z,5.60
2022-11-25T01:16:21.344Z,5.50
2022-11-25T01:19:06.796Z,5.40
2022-11-25T01:21:52.179Z,5.30
2022-11-25T01:24:39.824Z,5.60
2022-11-25T01:27:25.226Z,5.50
2022-11-25T01:30:11.092Z,5.60
2022-11-25T01:32:56.625Z,5.60
2022-11-25T01:35:41.794Z,5.50
2022-11-25T01:38:27.300Z,5.50
2022-11-25T01:41:14.283Z,5.60
2022-11-25T01:44:17.827Z,5.60
2022-11-25T01:47:25.010Z,5.80
2022-11-25T01:50:12.447Z,5.80
2022-11-25T01:52:58.516Z,5.70
2022-11-25T01:55:53.856Z,5.70
2022-11-25T01:58:40.759Z,5.90
2022-11-25T02:01:26.818Z,5.80
2022-11-25T02:04:14.925Z,5.70
2022-11-25T02:07:09.677Z,5.70
2022-11-25T02:09:56.618Z,5.90
2022-11-25T02:12:43.885Z,5.80
2022-11-25T02:15:31.131Z,5.90
2022-11-25T02:18:16.388Z,6.10
2022-11-25T02:21:01.866Z,6.40
2022-11-25T02:23:59.045Z,6.10
2022-11-25T02:26:44.888Z,6.10
2022-11-25T02:29:30.589Z,6.20
2022-11-25T02:32:16.208Z,6.00
2022-11-25T02:35:01.687Z,5.80
2022-11-25T02:37:47.300Z,5.90
2022-11-25T02:40:37.475Z,5.80
2022-11-25T02:43:23.118Z,5.90
2022-11-25T02:46:11.398Z,6.30
2022-11-25T02:49:09.033Z,6.10
2022-11-25T02:51:55.288Z,5.90
2022-11-25T02:54:41.124Z,6.00
2022-11-25T02:57:26.298Z,5.90
2022-11-25T03:00:12.531Z,6.10
2022-11-25T03:02:58.177Z,5.90
2022-11-25T03:05:44.002Z,6.00
2022-11-25T03:08:29.567Z,6.00
2022-11-25T03:11:15.372Z,6.00
2022-11-25T03:14:00.929Z,5.90
2022-11-25T03:16:46.580Z,5.80
2022-11-25T03:19:32.348Z,5.90
2022-11-25T03:22:18.029Z,5.80
2022-11-25T03:25:03.783Z,5.80
2022-11-25T03:27:49.364Z,5.70
2022-11-25T03:30:34.749Z,5.70
2022-11-25T03:33:20.275Z,5.80
2022-11-25T03:36:06.144Z,5.80
2022-11-25T03:38:51.197Z,5.80
2022-11-25T03:41:36.857Z,5.70
2022-11-25T03:44:22.320Z,5.80
2022-11-25T03:47:07.920Z,5.70
2022-11-25T03:49:53.574Z,5.90
2022-11-25T03:52:39.675Z,5.50
2022-11-25T03:55:24.880Z,5.60
2022-11-25T03:58:10.370Z,5.60
2022-11-25T04:01:00.562Z,5.60
2022-11-25T04:03:46.019Z,5.60
2022-11-25T04:06:32.156Z,5.60
2022-11-25T04:09:17.543Z,5.60
2022-11-25T04:12:21.231Z,5.50
2022-11-25T04:15:06.968Z,5.50
2022-11-25T04:17:52.568Z,5.60
2022-11-25T04:20:38.119Z,5.60
2022-11-25T04:23:23.841Z,5.70
2022-11-25T04:26:09.941Z,5.70
2022-11-25T04:28:55.521Z,5.60
2022-11-25T04:31:41.067Z,5.60
2022-11-25T04:34:26.796Z,5.70
2022-11-25T04:37:12.031Z,6.00
2022-11-25T04:39:57.468Z,6.00
2022-11-25T04:42:43.000Z,6.00
2022-11-25T04:45:33.383Z,5.90
2022-11-25T04:48:30.841Z,6.40
2022-11-25T04:51:16.406Z,5.70
2022-11-25T04:54:01.614Z,7.50
2022-11-25T04:56:47.113Z,5.90
2022-11-25T04:59:41.841Z,5.90
2022-11-25T05:02:28.611Z,5.90
2022-11-25T05:05:14.028Z,5.80
2022-11-25T05:07:59.476Z,6.00
2022-11-25T05:10:45.103Z,6.00
2022-11-25T05:13:30.724Z,5.90
2022-11-25T05:16:16.207Z,5.90
2022-11-25T05:19:01.697Z,5.80
2022-11-25T05:21:47.353Z,5.80
2022-11-25T05:24:32.918Z,5.70
2022-11-25T05:27:19.382Z,5.80
2022-11-25T05:30:05.681Z,5.70
2022-11-25T05:32:51.083Z,5.70
2022-11-25T05:35:36.728Z,5.70
2022-11-25T05:38:22.271Z,5.80
2022-11-25T05:41:08.328Z,6.00
2022-11-25T05:43:53.852Z,5.90
2022-11-25T05:46:39.552Z,6.00
2022-11-25T05:49:25.279Z,6.00
2022-11-25T05:52:10.807Z,5.90
2022-11-25T05:54:57.580Z,6.00
2022-11-25T05:57:42.964Z,6.10
2022-11-25T06:04:29.107Z,8.10
2022-11-25T06:07:14.665Z,6.10
2022-11-25T06:10:03.078Z,6.10
2022-11-25T06:12:49.458Z,6.20
2022-11-25T06:15:35.386Z,6.40
2022-11-25T06:18:20.756Z,6.30
2022-11-25T06:21:07.583Z,6.10
2022-11-25T06:23:53.214Z,6.60
2022-11-25T06:26:38.839Z,6.40
2022-11-25T06:29:24.421Z,6.20
2022-11-25T06:32:10.095Z,6.30
2022-11-25T06:34:55.214Z,6.30
2022-11-25T06:37:41.287Z,6.30
2022-11-25T06:40:26.652Z,6.50
2022-11-25T06:43:12.191Z,6.20
2022-11-25T06:46:09.561Z,6.10
2022-11-25T06:48:54.921Z,6.10
2022-11-25T06:51:40.418Z,6.20
2022-11-25T06:54:25.893Z,6.10
2022-11-25T06:57:12.781Z,6.30
2022-11-25T06:59:58.405Z,5.70
2022-11-25T07:02:48.364Z,6.40
2022-11-25T07:05:34.486Z,6.40
2022-11-25T07:08:22.503Z,6.30
2022-11-25T07:11:13.918Z,6.40
2022-11-25T07:14:01.713Z,6.20
2022-11-25T07:16:47.435Z,6.20
2022-11-25T07:19:35.518Z,6.30
2022-11-25T07:22:21.111Z,6.20
2022-11-25T07:25:06.772Z,6.30
2022-11-25T07:27:52.457Z,6.40
2022-11-25T07:33:43.164Z,6.40
2022-11-25T07:36:29.420Z,6.40
2022-11-25T07:39:22.167Z,6.20
2022-11-25T07:42:07.516Z,6.20
2022-11-25T07:44:53.080Z,6.90
2022-11-25T07:47:38.847Z,7.00
2022-11-25T07:50:24.424Z,6.30
2022-11-25T07:53:09.985Z,6.30
2022-11-25T07:55:55.505Z,6.40
2022-11-25T07:58:45.889Z,6.50
2022-11-25T08:01:31.503Z,6.70
2022-11-25T08:04:20.375Z,6.70
2022-11-25T08:07:06.263Z,6.90
2022-11-25T08:09:51.767Z,7.00
2022-11-25T08:12:37.192Z,6.90
2022-11-25T08:15:22.352Z,7.10
2022-11-25T08:18:07.901Z,7.40
2022-11-25T08:20:58.231Z,7.40
2022-11-25T08:23:44.647Z,7.50
2022-11-25T08:26:33.994Z,7.60
2022-11-25T08:29:19.545Z,7.70
2022-11-25T08:32:10.300Z,7.70
2022-11-25T08:34:57.297Z,10.10
2022-11-25T08:37:42.622Z,7.80
2022-11-25T08:40:27.993Z,7.80
2022-11-25T08:43:13.505Z,8.70
2022-11-25T08:45:59.231Z,7.80
2022-11-25T08:48:44.809Z,7.90
2022-11-25T08:51:32.769Z,7.90
2022-11-25T08:54:18.725Z,8.80
2022-11-25T08:57:04.037Z,8.60
2022-11-25T08:59:49.336Z,7.60
2022-11-25T09:02:34.847Z,7.70
2022-11-25T09:05:20.379Z,7.80
2022-11-25T09:08:07.475Z,7.80
2022-11-25T09:10:53.130Z,7.70
2022-11-25T09:13:38.683Z,7.80
2022-11-25T09:16:26.589Z,7.70
2022-11-25T09:19:12.276Z,7.60
2022-11-25T09:21:57.764Z,7.70
2022-11-25T09:24:45.420Z,7.60
2022-11-25T09:27:32.102Z,7.60
2022-11-25T09:30:17.757Z,7.60
2022-11-25T09:33:03.085Z,7.70
2022-11-25T09:35:50.300Z,7.80
2022-11-25T09:38:41.688Z,8.60
2022-11-25T09:42:20.398Z,8.20
2022-11-25T09:45:30.376Z,8.30
2022-11-25T09:48:24.897Z,8.50
2022-11-25T09:51:17.233Z,8.60
2022-11-25T09:54:31.921Z,8.70
2022-11-25T09:57:56.389Z,8.70
2022-11-25T10:00:46.540Z,8.90
2022-11-25T10:03:39.272Z,8.80
2022-11-25T10:06:27.339Z,8.90
2022-11-25T10:09:15.737Z,9.10
2022-11-25T10:12:17.987Z,9.20
2022-11-25T10:15:12.616Z,9.20
2022-11-25T10:18:04.992Z,9.10
2022-11-25T10:20:52.530Z,9.40
2022-11-25T10:23:39.953Z,9.40
2022-11-25T10:26:34.696Z,9.70
2022-11-25T10:29:25.238Z,9.70
2022-11-25T10:32:26.046Z,9.70
2022-11-25T10:35:39.298Z,9.80
2022-11-25T10:38:35.539Z,9.90
2022-11-25T10:41:23.991Z,9.80
2022-11-25T10:44:33.782Z,9.90
2022-11-25T10:47:34.728Z,10.10
2022-11-25T10:50:29.553Z,9.90
2022-11-25T10:53:25.701Z,9.90
2022-11-25T10:56:18.852Z,9.90
2022-11-25T10:59:14.381Z,10.90
2022-11-25T11:02:21.279Z,9.80
2022-11-25T11:05:09.901Z,10.00
2022-11-25T11:08:12.656Z,10.10
2022-11-25T11:11:30.631Z,10.00
2022-11-25T11:14:20.401Z,10.30
2022-11-25T11:17:06.018Z,10.60
2022-11-25T11:20:14.397Z,11.00
2022-11-25T11:23:13.997Z,11.40
2022-11-25T11:26:02.582Z,11.50
2022-11-25T11:28:48.152Z,11.70
2022-11-25T11:31:39.420Z,10.60
2022-11-25T11:34:47.034Z,10.20
2022-11-25T11:37:47.323Z,10.20
2022-11-25T11:40:35.731Z,10.10
2022-11-25T11:43:46.556Z,10.20
2022-11-25T11:47:07.344Z,10.30
2022-11-25T11:50:31.073Z,10.40
2022-11-25T11:53:19.065Z,10.70
2022-11-25T11:59:42.591Z,10.60
2022-11-25T12:02:37.152Z,10.60
2022-11-25T12:05:27.324Z,10.50
2022-11-25T12:08:26.150Z,10.50
2022-11-25T12:11:17.387Z,10.70
2022-11-25T12:14:40.020Z,10.90
2022-11-25T12:17:41.553Z,10.90
2022-11-25T12:20:44.384Z,10.60
2022-11-25T12:24:04.108Z,10.70
2022-11-25T12:26:54.066Z,10.80
2022-11-25T12:29:50.292Z,10.70
2022-11-25T12:32:54.828Z,10.70
2022-11-25T12:36:04.846Z,10.80
2022-11-25T12:39:01.895Z,10.80
2022-11-25T12:42:01.770Z,10.90
2022-11-25T12:44:59.499Z,10.50
2022-11-25T12:47:45.381Z,12.20
2022-11-25T12:50:47.546Z,10.00
2022-11-25T12:53:41.599Z,10.00
2022-11-25T12:56:44.782Z,10.00
2022-11-25T12:59:33.270Z,10.00
2022-11-25T13:02:54.471Z,10.50
2022-11-25T13:06:25.445Z,9.90
2022-11-25T13:09:35.553Z,9.60
2022-11-25T13:12:32.002Z,9.80
2022-11-25T13:15:31.766Z,10.70
2022-11-25T13:18:20.314Z,10.20
2022-11-25T13:21:10.759Z,10.10
2022-11-25T13:23:59.216Z,10.40
2022-11-25T13:26:49.322Z,10.60
2022-11-25T13:29:43.983Z,10.80
2022-11-25T13:32:31.383Z,10.90
2022-11-25T13:35:22.718Z,11.60
2022-11-25T13:38:29.152Z,11.00
2022-11-25T13:41:20.441Z,10.60
2022-11-25T13:44:20.891Z,13.10
2022-11-25T13:47:40.940Z,10.90
2022-11-25T13:50:42.021Z,11.00
2022-11-25T13:53:35.754Z,11.10
2022-11-25T13:56:21.147Z,11.40
2022-11-25T13:59:15.546Z,11.10
2022-11-25T14:02:28.928Z,12.50
2022-11-25T14:05:42.212Z,11.00
2022-11-25T14:08:44.727Z,11.10
2022-11-25T14:11:59.540Z,11.20
2022-11-25T14:15:12.519Z,11.20
2022-11-25T14:18:42.976Z,11.00
2022-11-25T14:22:03.371Z,11.10
2022-11-25T14:24:53.160Z,11.00
2022-11-25T14:27:39.249Z,11.20
2022-11-25T14:30:25.976Z,11.70
2022-11-25T14:33:17.360Z,11.00
2022-11-25T14:36:12.864Z,11.00
2022-11-25T14:39:06.046Z,11.00
2022-11-25T14:42:03.928Z,10.90
2022-11-25T14:44:51.149Z,10.90
2022-11-25T14:47:39.429Z,10.80
2022-11-25T14:50:40.643Z,12.10
2022-11-25T14:53:27.809Z,10.70
2022-11-25T14:56:28.986Z,11.20
2022-11-25T14:59:15.169Z,10.70
2022-11-25T15:02:00.631Z,10.60
2022-11-25T15:04:45.956Z,10.50
2022-11-25T15:07:32.391Z,10.50
2022-11-25T15:10:56.528Z,10.40
2022-11-25T15:13:47.754Z,10.40
2022-11-25T15:16:36.927Z,10.40
2022-11-25T15:19:29.233Z,11.10
2022-11-25T15:22:23.566Z,10.30
2022-11-25T15:25:15.005Z,10.10
2022-11-25T15:28:00.392Z,10.00
2022-11-25T15:31:18.471Z,10.00
2022-11-25T15:34:06.992Z,9.90
2022-11-25T15:36:54.454Z,9.70
2022-11-25T15:39:40.260Z,9.90
2022-11-25T15:42:28.398Z,10.40
2022-11-25T15:45:21.418Z,9.50
2022-11-25T15:48:07.159Z,9.50
2022-11-25T15:50:52.884Z,9.40
2022-11-25T15:53:39.252Z,9.30
2022-11-25T15:56:27.041Z,9.30
2022-11-25T15:59:50.246Z,9.20
2022-11-25T16:02:41.885Z,9.20
2022-11-25T16:05:27.129Z,9.10
2022-11-25T16:08:33.691Z,9.40
2022-11-25T16:11:20.022Z,9.20
2022-11-25T16:14:23.727Z,9.20
2022-11-25T16:17:12.611Z,9.10
2022-11-25T16:19:57.874Z,9.10
2022-11-25T16:22:43.492Z,10.40
2022-11-25T16:25:28.734Z,9.00
2022-11-25T16:28:32.691Z,9.50
2022-11-25T16:31:18.369Z,10.20
2022-11-25T16:34:19.142Z,9.50
2022-11-25T16:37:04.777Z,8.80
2022-11-25T16:39:50.123Z,8.90
2022-11-25T16:42:35.722Z,8.90
2022-11-25T16:45:27.261Z,8.70
2022-11-25T16:48:17.479Z,8.70
2022-11-25T16:51:03.220Z,8.60
2022-11-25T16:53:48.466Z,8.30
2022-11-25T16:56:37.191Z,8.30
2022-11-25T16:59:30.345Z,8.40
2022-11-25T17:02:21.900Z,8.40
2022-11-25T17:05:17.890Z,9.00
2022-11-25T17:08:03.589Z,8.40
2022-11-25T17:10:49.707Z,8.50
2022-11-25T17:13:38.096Z,9.20
2022-11-25T17:16:26.341Z,8.50
2022-11-25T17:19:16.051Z,8.50
2022-11-25T17:22:01.569Z,8.30
2022-11-25T17:24:47.009Z,8.30
2022-11-25T17:27:33.378Z,8.30
2022-11-25T17:30:22.971Z,8.40
2022-11-25T17:33:14.192Z,8.80
2022-11-25T17:35:59.504Z,8.30
2022-11-25T17:38:44.981Z,8.50
2022-11-25T17:41:33.179Z,8.50
2022-11-25T17:44:23.622Z,8.40
2022-11-25T17:47:14.832Z,8.40
2022-11-25T17:50:00.473Z,8.40
2022-11-25T17:52:45.812Z,8.30
2022-11-25T17:55:32.419Z,8.40
2022-11-25T17:58:19.242Z,8.40
2022-11-25T18:01:04.943Z,8.60
2022-11-25T18:03:52.981Z,8.40
2022-11-25T18:06:38.520Z,8.40
2022-11-25T18:09:23.981Z,8.40
2022-11-25T18:12:39.243Z,8.40
2022-11-25T18:15:28.526Z,8.40
2022-11-25T18:18:21.656Z,8.40
2022-11-25T18:21:07.017Z,8.60
2022-11-25T18:23:53.634Z,8.50
2022-11-25T18:26:50.550Z,8.80
2022-11-25T18:29:36.333Z,8.50
2022-11-25T18:32:23.452Z,8.60
2022-11-25T18:35:19.239Z,8.40
2022-11-25T18:38:05.933Z,8.90
2022-11-25T18:40:53.841Z,8.40
2022-11-25T18:43:39.706Z,8.40
2022-11-25T18:46:25.479Z,9.10
2022-11-25T18:49:14.514Z,8.40
2022-11-25T18:51:59.765Z,8.50
2022-11-25T18:54:45.440Z,8.40
2022-11-25T18:57:31.074Z,8.40
2022-11-25T19:00:36.238Z,9.50
2022-11-25T19:03:25.221Z,8.50
2022-11-25T19:06:15.317Z,8.50
2022-11-25T19:09:00.709Z,8.50
2022-11-25T19:11:51.234Z,8.50
2022-11-25T19:14:41.944Z,8.40
2022-11-25T19:17:28.257Z,8.50
2022-11-25T19:20:19.116Z,8.30
2022-11-25T19:23:30.919Z,8.30
2022-11-25T19:26:39.266Z,8.30
2022-11-25T19:29:41.565Z,8.20
2022-11-25T19:32:29.473Z,8.40
2022-11-25T19:35:23.405Z,8.30
2022-11-25T19:38:21.472Z,8.30
2022-11-25T19:41:08.438Z,8.30
2022-11-25T19:43:53.588Z,8.20
2022-11-25T19:47:12.999Z,8.20
2022-11-25T19:49:51.092Z,9.10
2022-11-25T19:52:39.254Z,8.20
2022-11-25T19:55:30.370Z,8.30
2022-11-25T19:58:15.740Z,8.30
2022-11-25T20:01:04.365Z,8.50
2022-11-25T20:03:51.179Z,8.40
2022-11-25T20:06:36.832Z,8.40
2022-11-25T20:09:22.449Z,8.40
2022-11-25T20:12:20.459Z,8.20
2022-11-25T20:15:07.418Z,8.30
2022-11-25T20:17:57.767Z,8.20
2022-11-25T20:20:44.332Z,8.30
2022-11-25T20:23:43.274Z,8.30
2022-11-25T20:26:37.241Z,8.20
2022-11-25T20:29:27.520Z,8.20
2022-11-25T20:32:36.197Z,8.10
2022-11-25T20:35:23.004Z,8.20
2022-11-25T20:38:23.589Z,8.90
2022-11-25T20:41:11.771Z,8.10
2022-11-25T20:43:58.140Z,8.10
2022-11-25T20:46:43.616Z,8.00
2022-11-25T20:49:29.419Z,8.10
2022-11-25T20:52:28.277Z,8.10
2022-11-25T20:55:24.798Z,8.10
2022-11-25T20:58:24.138Z,7.80
2022-11-25T21:01:10.089Z,7.70
2022-11-25T21:03:55.741Z,7.80
2022-11-25T21:06:41.452Z,7.70
2022-11-25T21:09:32.626Z,7.50
2022-11-25T21:12:19.687Z,7.50
2022-11-25T21:15:16.117Z,7.60
2022-11-25T21:18:01.446Z,7.60
2022-11-25T21:20:49.238Z,8.70
2022-11-25T21:23:37.811Z,7.80
2022-11-25T21:26:26.253Z,8.10
2022-11-25T21:29:16.777Z,7.80
2022-11-25T21:32:02.320Z,9.30
2022-11-25T21:34:47.470Z,7.80
2022-11-25T21:37:36.416Z,7.90
2022-11-25T21:40:28.084Z,7.80
2022-11-25T21:43:23.988Z,7.80
2022-11-25T21:46:14.203Z,7.70
2022-11-25T21:48:59.792Z,7.60
2022-11-25T21:51:45.224Z,7.70
2022-11-25T21:54:30.744Z,7.70
2022-11-25T21:57:27.848Z,7.50
2022-11-25T22:00:20.672Z,7.30
2022-11-25T22:03:17.120Z,7.10
2022-11-25T22:06:02.401Z,7.10
2022-11-25T22:08:48.055Z,7.20
2022-11-25T22:11:36.894Z,7.70
2022-11-25T22:14:34.493Z,7.40
2022-11-25T22:17:20.726Z,7.40
2022-11-25T22:20:20.330Z,7.20
2022-11-25T22:23:16.012Z,7.10
2022-11-25T22:26:03.700Z,7.30
2022-11-25T22:28:51.602Z,7.40
2022-11-25T22:31:36.851Z,7.30
2022-11-25T22:34:24.369Z,7.10
2022-11-25T22:37:22.058Z,7.40
2022-11-25T22:40:08.368Z,7.40
2022-11-25T22:42:55.569Z,7.30
2022-11-25T22:45:40.764Z,7.20
2022-11-25T22:48:33.410Z,7.80
2022-11-25T22:51:25.515Z,6.90
2022-11-25T22:54:12.087Z,6.70
2022-11-25T22:56:58.201Z,6.70
2022-11-25T22:59:44.269Z,6.60
2022-11-25T23:02:33.623Z,6.60
2022-11-25T23:05:33.357Z,6.70
2022-11-25T23:08:22.144Z,6.60
2022-11-25T23:11:15.978Z,6.50
2022-11-25T23:14:01.490Z,6.70
2022-11-25T23:16:46.974Z,6.50
2022-11-25T23:19:33.076Z,6.40
2022-11-25T23:22:18.945Z,6.20
2022-11-25T23:25:17.911Z,6.10
2022-11-25T23:28:03.443Z,6.30
2022-11-25T23:30:51.921Z,6.20
2022-11-25T23:33:43.469Z,6.10
2022-11-25T23:36:38.873Z,6.10
2022-11-25T23:39:26.401Z,6.20
2022-11-25T23:42:19.513Z,5.80
2022-11-25T23:45:07.297Z,5.60
2022-11-25T23:47:54.467Z,5.50
2022-11-25T23:50:40.773Z,5.60
2022-11-25T23:53:32.791Z,5.60
2022-11-25T23:56:18.308Z,5.80
2022-11-25T23:59:03.687Z,5.80
